sensor_id;sensor_type;location;lat;lon;timestamp;pressure;altitude;pressure_sealevel;temperature;humidity
27864;BME280;15980;51.092;13.916;2022-07-30T00:02:54;98536.78;;;20.83;60.92
27864;BME280;15980;51.092;13.916;2022-07-30T00:07:58;98561.09;;;20.79;61.35
27864;BME280;15980;51.092;13.916;2022-07-30T00:13:01;98564.75;;;20.73;60.97
27864;BME280;15980;51.092;13.916;2022-07-30T00:18:05;98560.13;;;21.00;60.28
27864;BME280;15980;51.092;13.916;2022-07-30T00:23:09;98565.72;;;21.00;60.77
27864;BME280;15980;51.092;13.916;2022-07-30T00:28:12;98564.06;;;21.06;62.13
27864;BME280;15980;51.092;13.916;2022-07-30T00:33:15;98570.91;;;20.98;63.15
27864;BME280;15980;51.092;13.916;2022-07-30T00:38:19;98568.69;;;20.79;65.34
27864;BME280;15980;51.092;13.916;2022-07-30T00:43:23;98566.59;;;20.38;67.05
27864;BME280;15980;51.092;13.916;2022-07-30T00:48:26;98559.41;;;20.37;68.39
27864;BME280;15980;51.092;13.916;2022-07-30T00:53:33;98546.47;;;20.09;70.66
27864;BME280;15980;51.092;13.916;2022-07-30T00:58:37;98555.25;;;20.04;71.36
27864;BME280;15980;51.092;13.916;2022-07-30T01:03:40;98544.16;;;20.00;72.28
27864;BME280;15980;51.092;13.916;2022-07-30T01:08:44;98551.75;;;19.89;72.69
27864;BME280;15980;51.092;13.916;2022-07-30T01:13:47;98545.41;;;19.85;73.51
27864;BME280;15980;51.092;13.916;2022-07-30T01:18:52;98547.03;;;19.79;73.99
27864;BME280;15980;51.092;13.916;2022-07-30T01:24:21;98543.03;;;19.84;74.29
27864;BME280;15980;51.092;13.916;2022-07-30T01:29:29;98548.28;;;19.71;75.38
27864;BME280;15980;51.092;13.916;2022-07-30T01:34:33;98548.72;;;19.59;76.42
27864;BME280;15980;51.092;13.916;2022-07-30T01:39:39;98541.59;;;19.54;77.90
27864;BME280;15980;51.092;13.916;2022-07-30T01:44:44;98537.59;;;19.59;77.80
27864;BME280;15980;51.092;13.916;2022-07-30T01:49:50;98533.28;;;19.29;79.73
27864;BME280;15980;51.092;13.916;2022-07-30T01:54:55;98526.53;;;19.27;81.10
27864;BME280;15980;51.092;13.916;2022-07-30T02:00:04;98536.53;;;19.10;82.37
27864;BME280;15980;51.092;13.916;2022-07-30T02:05:08;98535.72;;;18.99;83.25
27864;BME280;15980;51.092;13.916;2022-07-30T02:10:13;98540.50;;;19.12;81.52
27864;BME280;15980;51.092;13.916;2022-07-30T02:15:25;98529.81;;;18.82;84.03
27864;BME280;15980;51.092;13.916;2022-07-30T02:20:31;98535.72;;;18.99;83.65
27864;BME280;15980;51.092;13.916;2022-07-30T02:25:37;98534.53;;;19.03;83.27
27864;BME280;15980;51.092;13.916;2022-07-30T02:30:48;98535.31;;;19.07;83.73
27864;BME280;15980;51.092;13.916;2022-07-30T02:35:54;98530.59;;;18.87;84.76
27864;BME280;15980;51.092;13.916;2022-07-30T02:40:59;98541.72;;;18.87;84.89
27864;BME280;15980;51.092;13.916;2022-07-30T02:46:05;98545.25;;;19.12;83.11
27864;BME280;15980;51.092;13.916;2022-07-30T02:51:10;98548.06;;;18.98;83.56
27864;BME280;15980;51.092;13.916;2022-07-30T02:56:18;98540.91;;;18.93;84.49
27864;BME280;15980;51.092;13.916;2022-07-30T03:01:25;98537.75;;;18.77;85.08
27864;BME280;15980;51.092;13.916;2022-07-30T03:06:29;98537.78;;;18.73;86.00
27864;BME280;15980;51.092;13.916;2022-07-30T03:11:33;98542.16;;;18.71;85.33
27864;BME280;15980;51.092;13.916;2022-07-30T03:16:39;98538.16;;;18.79;86.35
27864;BME280;15980;51.092;13.916;2022-07-30T03:21:47;98538.56;;;18.70;86.37
27864;BME280;15980;51.092;13.916;2022-07-30T03:26:51;98538.56;;;18.70;85.87
27864;BME280;15980;51.092;13.916;2022-07-30T03:31:58;98538.94;;;18.83;85.10
27864;BME280;15980;51.092;13.916;2022-07-30T03:37:02;98552.06;;;18.65;86.00
27864;BME280;15980;51.092;13.916;2022-07-30T03:42:07;98545.69;;;18.86;84.49
27864;BME280;15980;51.092;13.916;2022-07-30T03:47:12;98544.09;;;18.88;83.81
27864;BME280;15980;51.092;13.916;2022-07-30T03:52:16;98544.91;;;18.89;84.25
27864;BME280;15980;51.092;13.916;2022-07-30T03:57:20;98543.31;;;18.84;84.74
27864;BME280;15980;51.092;13.916;2022-07-30T04:02:25;98530.59;;;18.87;84.18
27864;BME280;15980;51.092;13.916;2022-07-30T04:07:28;98536.53;;;18.60;85.50
27864;BME280;15980;51.092;13.916;2022-07-30T04:12:31;98533.00;;;18.63;85.38
27864;BME280;15980;51.092;13.916;2022-07-30T04:17:39;98534.56;;;18.61;86.04
27864;BME280;15980;51.092;13.916;2022-07-30T04:22:43;98536.16;;;18.62;86.39
27864;BME280;15980;51.092;13.916;2022-07-30T04:27:47;98541.31;;;18.45;86.33
27864;BME280;15980;51.092;13.916;2022-07-30T04:32:52;98541.72;;;18.47;86.33
27864;BME280;15980;51.092;13.916;2022-07-30T04:37:55;98554.41;;;18.31;87.91
27864;BME280;15980;51.092;13.916;2022-07-30T04:42:58;98543.66;;;18.15;89.12
27864;BME280;15980;51.092;13.916;2022-07-30T04:48:03;98548.84;;;18.52;87.85
27864;BME280;15980;51.092;13.916;2022-07-30T04:53:06;98555.97;;;18.25;87.45
27864;BME280;15980;51.092;13.916;2022-07-30T04:58:12;98543.28;;;18.38;88.09
27864;BME280;15980;51.092;13.916;2022-07-30T05:03:20;98550.38;;;18.14;88.83
27864;BME280;15980;51.092;13.916;2022-07-30T05:08:24;98555.97;;;18.21;91.14
27864;BME280;15980;51.092;13.916;2022-07-30T05:13:27;98556.78;;;18.46;89.53
27864;BME280;15980;51.092;13.916;2022-07-30T05:18:31;98543.28;;;18.52;90.04
27864;BME280;15980;51.092;13.916;2022-07-30T05:23:34;98538.94;;;18.47;91.13
27864;BME280;15980;51.092;13.916;2022-07-30T05:28:37;98526.56;;;17.88;93.23
27864;BME280;15980;51.092;13.916;2022-07-30T05:33:42;98533.34;;;18.12;92.87
27864;BME280;15980;51.092;13.916;2022-07-30T05:38:45;98539.72;;;18.34;90.89
27864;BME280;15980;51.092;13.916;2022-07-30T05:43:49;98549.25;;;18.58;89.17
27864;BME280;15980;51.092;13.916;2022-07-30T05:48:53;98549.28;;;18.75;87.91
27864;BME280;15980;51.092;13.916;2022-07-30T05:53:56;98563.94;;;18.58;89.38
27864;BME280;15980;51.092;13.916;2022-07-30T05:58:59;98559.16;;;18.59;88.05
27864;BME280;15980;51.092;13.916;2022-07-30T06:04:04;98573.13;;;18.73;88.03
27864;BME280;15980;51.092;13.916;2022-07-30T06:09:08;98577.06;;;19.11;85.69
27864;BME280;15980;51.092;13.916;2022-07-30T06:14:11;98573.47;;;19.03;85.20
27864;BME280;15980;51.092;13.916;2022-07-30T06:19:15;98578.22;;;19.17;86.36
27864;BME280;15980;51.092;13.916;2022-07-30T06:24:18;98577.41;;;19.31;83.50
27864;BME280;15980;51.092;13.916;2022-07-30T06:29:21;98584.91;;;19.59;81.44
27864;BME280;15980;51.092;13.916;2022-07-30T06:34:26;98573.34;;;19.67;81.64
27864;BME280;15980;51.092;13.916;2022-07-30T06:39:29;98569.69;;;19.81;81.40
27864;BME280;15980;51.092;13.916;2022-07-30T06:44:32;98579.81;;;20.23;79.09
27864;BME280;15980;51.092;13.916;2022-07-30T06:49:37;98580.53;;;20.38;76.75
27864;BME280;15980;51.092;13.916;2022-07-30T06:54:40;98587.69;;;20.39;75.16
27864;BME280;15980;51.092;13.916;2022-07-30T06:59:43;98585.66;;;20.98;74.51
27864;BME280;15980;51.092;13.916;2022-07-30T07:04:47;98600.25;;;21.13;72.55
27864;BME280;15980;51.092;13.916;2022-07-30T07:09:50;98609.63;;;21.37;71.92
27864;BME280;15980;51.092;13.916;2022-07-30T07:14:53;98605.97;;;21.44;68.09
27864;BME280;15980;51.092;13.916;2022-07-30T07:19:58;98622.28;;;21.45;64.96
27864;BME280;15980;51.092;13.916;2022-07-30T07:25:03;98611.28;;;21.65;62.44
27864;BME280;15980;51.092;13.916;2022-07-30T07:30:07;98618.03;;;21.71;61.20
27864;BME280;15980;51.092;13.916;2022-07-30T07:35:11;98620.28;;;21.83;60.57
27864;BME280;15980;51.092;13.916;2022-07-30T07:40:15;98621.91;;;21.81;60.94
27864;BME280;15980;51.092;13.916;2022-07-30T07:45:20;98621.56;;;22.09;61.46
27864;BME280;15980;51.092;13.916;2022-07-30T07:50:27;98615.13;;;22.43;60.98
27864;BME280;15980;51.092;13.916;2022-07-30T07:55:30;98622.66;;;22.46;59.84
27864;BME280;15980;51.092;13.916;2022-07-30T08:00:33;98625.53;;;22.12;60.32
27864;BME280;15980;51.092;13.916;2022-07-30T08:05:37;98627.69;;;21.97;60.72
27864;BME280;15980;51.092;13.916;2022-07-30T08:10:40;98626.09;;;21.96;61.26
27864;BME280;15980;51.092;13.916;2022-07-30T08:15:43;98628.19;;;22.22;61.66
27864;BME280;15980;51.092;13.916;2022-07-30T08:20:47;98628.84;;;22.00;62.85
27864;BME280;15980;51.092;13.916;2022-07-30T08:25:52;98626.31;;;21.78;63.71
27864;BME280;15980;51.092;13.916;2022-07-30T08:30:55;98625.56;;;21.74;64.24
27864;BME280;15980;51.092;13.916;2022-07-30T08:36:00;98619.53;;;21.42;64.55
27864;BME280;15980;51.092;13.916;2022-07-30T08:41:03;98623.78;;;21.12;66.53
27864;BME280;15980;51.092;13.916;2022-07-30T08:46:08;98638.75;;;20.88;66.43
27864;BME280;15980;51.092;13.916;2022-07-30T08:51:14;98638.31;;;20.23;69.16
27864;BME280;15980;51.092;13.916;2022-07-30T08:56:17;98635.97;;;20.18;67.34
27864;BME280;15980;51.092;13.916;2022-07-30T09:01:21;98642.31;;;20.19;67.96
27864;BME280;15980;51.092;13.916;2022-07-30T09:06:26;98647.19;;;20.04;67.37
27864;BME280;15980;51.092;13.916;2022-07-30T09:11:32;98640.63;;;20.35;67.67
27864;BME280;15980;51.092;13.916;2022-07-30T09:16:36;98635.75;;;20.57;68.16
27864;BME280;15980;51.092;13.916;2022-07-30T09:21:40;98643.47;;;21.43;65.92
27864;BME280;15980;51.092;13.916;2022-07-30T09:26:54;98645.53;;;21.35;65.81
27864;BME280;15980;51.092;13.916;2022-07-30T09:32:00;98640.66;;;20.32;69.11
27864;BME280;15980;51.092;13.916;2022-07-30T09:37:17;98646.50;;;19.68;70.42
27864;BME280;15980;51.092;13.916;2022-07-30T09:42:22;98647.25;;;19.79;71.07
27864;BME280;15980;51.092;13.916;2022-07-30T09:47:29;98652.00;;;19.89;69.46
27864;BME280;15980;51.092;13.916;2022-07-30T09:52:34;98664.31;;;19.88;67.51
27864;BME280;15980;51.092;13.916;2022-07-30T09:57:53;98661.53;;;19.99;68.61
27864;BME280;15980;51.092;13.916;2022-07-30T10:02:58;98661.91;;;20.04;67.82
27864;BME280;15980;51.092;13.916;2022-07-30T10:08:03;98662.31;;;19.92;67.50
27864;BME280;15980;51.092;13.916;2022-07-30T10:13:12;98674.13;;;20.25;66.39
27864;BME280;15980;51.092;13.916;2022-07-30T10:18:18;98674.78;;;21.13;64.27
27864;BME280;15980;51.092;13.916;2022-07-30T10:23:23;98664.91;;;21.01;66.25
27864;BME280;15980;51.092;13.916;2022-07-30T10:28:30;98662.66;;;22.97;61.33
27864;BME280;15980;51.092;13.916;2022-07-30T10:33:35;98670.78;;;23.38;59.63
27864;BME280;15980;51.092;13.916;2022-07-30T10:38:42;98671.34;;;22.48;61.48
27864;BME280;15980;51.092;13.916;2022-07-30T10:44:03;98661.06;;;23.46;60.58
27864;BME280;15980;51.092;13.916;2022-07-30T10:49:10;98659.84;;;23.47;58.45
27864;BME280;15980;51.092;13.916;2022-07-30T10:54:39;98670.16;;;22.76;60.96
27864;BME280;15980;51.092;13.916;2022-07-30T11:00:08;98676.63;;;22.43;61.90
27864;BME280;15980;51.092;13.916;2022-07-30T11:05:24;98667.41;;;22.46;61.69
27864;BME280;15980;51.092;13.916;2022-07-30T11:10:38;98669.31;;;21.88;63.08
27864;BME280;15980;51.092;13.916;2022-07-30T11:15:53;98670.34;;;22.01;63.58
27864;BME280;15980;51.092;13.916;2022-07-30T11:21:14;98664.84;;;22.28;61.41
27864;BME280;15980;51.092;13.916;2022-07-30T11:26:48;98655.75;;;22.78;61.26
27864;BME280;15980;51.092;13.916;2022-07-30T11:31:51;98655.47;;;23.46;59.51
27864;BME280;15980;51.092;13.916;2022-07-30T11:37:09;98655.19;;;23.37;58.62
27864;BME280;15980;51.092;13.916;2022-07-30T11:42:26;98649.63;;;23.80;57.31
27864;BME280;15980;51.092;13.916;2022-07-30T11:47:30;98660.13;;;23.96;56.80
27864;BME280;15980;51.092;13.916;2022-07-30T11:52:33;98645.19;;;24.02;55.39
27864;BME280;15980;51.092;13.916;2022-07-30T11:57:41;98664.31;;;24.63;53.79
27864;BME280;15980;51.092;13.916;2022-07-30T12:02:45;98665.16;;;24.24;54.96
27864;BME280;15980;51.092;13.916;2022-07-30T12:07:57;98658.75;;;24.80;53.82
27864;BME280;15980;51.092;13.916;2022-07-30T12:13:09;98653.84;;;24.31;55.43
27864;BME280;15980;51.092;13.916;2022-07-30T12:18:12;98662.38;;;24.60;53.81
27864;BME280;15980;51.092;13.916;2022-07-30T12:23:27;98665.38;;;23.94;54.28
27864;BME280;15980;51.092;13.916;2022-07-30T12:28:33;98665.09;;;22.95;57.44
27864;BME280;15980;51.092;13.916;2022-07-30T12:33:37;98665.44;;;23.24;56.97
27864;BME280;15980;51.092;13.916;2022-07-30T12:38:43;98674.88;;;24.00;55.63
27864;BME280;15980;51.092;13.916;2022-07-30T12:43:51;98683.78;;;23.95;54.39
27864;BME280;15980;51.092;13.916;2022-07-30T12:48:56;98682.19;;;23.94;53.59
27864;BME280;15980;51.092;13.916;2022-07-30T12:54:13;98671.97;;;23.64;54.24
27864;BME280;15980;51.092;13.916;2022-07-30T12:59:21;98671.22;;;23.13;57.29
27864;BME280;15980;51.092;13.916;2022-07-30T13:04:25;98676.63;;;23.24;56.13
27864;BME280;15980;51.092;13.916;2022-07-30T13:09:28;98674.94;;;23.30;56.09
27864;BME280;15980;51.092;13.916;2022-07-30T13:14:33;98689.44;;;23.48;54.28
27864;BME280;15980;51.092;13.916;2022-07-30T13:19:36;98684.19;;;23.50;54.74
27864;BME280;15980;51.092;13.916;2022-07-30T13:24:39;98683.81;;;23.71;53.52
27864;BME280;15980;51.092;13.916;2022-07-30T13:29:44;98682.97;;;24.14;51.55
27864;BME280;15980;51.092;13.916;2022-07-30T13:34:46;98684.13;;;23.97;50.53
27864;BME280;15980;51.092;13.916;2022-07-30T13:39:49;98690.94;;;23.53;50.95
27864;BME280;15980;51.092;13.916;2022-07-30T13:44:54;98699.44;;;24.12;48.18
27864;BME280;15980;51.092;13.916;2022-07-30T13:49:57;98693.69;;;23.99;48.47
27864;BME280;15980;51.092;13.916;2022-07-30T13:55:00;98692.88;;;23.79;49.01
27864;BME280;15980;51.092;13.916;2022-07-30T14:00:06;98699.25;;;23.60;50.39
27864;BME280;15980;51.092;13.916;2022-07-30T14:05:09;98699.25;;;24.42;48.60
27864;BME280;15980;51.092;13.916;2022-07-30T14:10:12;98706.84;;;24.62;47.63
27864;BME280;15980;51.092;13.916;2022-07-30T14:15:17;98708.03;;;24.81;45.75
27864;BME280;15980;51.092;13.916;2022-07-30T14:20:20;98713.03;;;24.73;46.14
27864;BME280;15980;51.092;13.916;2022-07-30T14:25:23;98713.16;;;24.66;46.46
27864;BME280;15980;51.092;13.916;2022-07-30T14:30:28;98734.28;;;24.34;45.36
27864;BME280;15980;51.092;13.916;2022-07-30T14:35:31;98717.19;;;24.05;46.68
27864;BME280;15980;51.092;13.916;2022-07-30T14:40:34;98705.94;;;24.49;46.39
27864;BME280;15980;51.092;13.916;2022-07-30T14:45:38;98714.78;;;24.83;45.01
27864;BME280;15980;51.092;13.916;2022-07-30T14:50:41;98701.31;;;24.58;45.15
27864;BME280;15980;51.092;13.916;2022-07-30T14:55:57;98717.59;;;24.27;46.46
27864;BME280;15980;51.092;13.916;2022-07-30T15:01:01;98716.44;;;23.81;47.42
27864;BME280;15980;51.092;13.916;2022-07-30T15:06:08;98709.16;;;23.88;48.77
27864;BME280;15980;51.092;13.916;2022-07-30T15:11:13;98714.84;;;23.80;48.47
27864;BME280;15980;51.092;13.916;2022-07-30T15:16:17;98720.47;;;23.80;49.55
27864;BME280;15980;51.092;13.916;2022-07-30T15:21:20;98722.94;;;24.18;47.97
27864;BME280;15980;51.092;13.916;2022-07-30T15:26:23;98722.72;;;24.09;47.41
27864;BME280;15980;51.092;13.916;2022-07-30T15:31:28;98735.09;;;23.68;46.55
27864;BME280;15980;51.092;13.916;2022-07-30T15:36:31;98732.22;;;23.72;47.33
27864;BME280;15980;51.092;13.916;2022-07-30T15:41:35;98733.78;;;23.26;48.38
27864;BME280;15980;51.092;13.916;2022-07-30T15:46:39;98727.84;;;23.47;49.26
27864;BME280;15980;51.092;13.916;2022-07-30T15:51:42;98734.09;;;23.32;49.58
27864;BME280;15980;51.092;13.916;2022-07-30T15:56:49;98735.59;;;23.36;49.52
27864;BME280;15980;51.092;13.916;2022-07-30T16:01:55;98731.03;;;23.23;49.79
27864;BME280;15980;51.092;13.916;2022-07-30T16:06:59;98720.25;;;23.21;46.22
27864;BME280;15980;51.092;13.916;2022-07-30T16:12:02;98725.13;;;22.90;48.94
27864;BME280;15980;51.092;13.916;2022-07-30T16:17:07;98727.72;;;23.04;47.67
27864;BME280;15980;51.092;13.916;2022-07-30T16:22:13;98734.75;;;22.89;47.15
27864;BME280;15980;51.092;13.916;2022-07-30T16:27:16;98739.59;;;22.85;47.53
27864;BME280;15980;51.092;13.916;2022-07-30T16:32:21;98730.59;;;23.01;47.26
27864;BME280;15980;51.092;13.916;2022-07-30T16:37:24;98735.66;;;23.09;47.70
27864;BME280;15980;51.092;13.916;2022-07-30T16:42:27;98754.50;;;23.05;46.32
27864;BME280;15980;51.092;13.916;2022-07-30T16:47:31;98753.53;;;23.15;47.28
27864;BME280;15980;51.092;13.916;2022-07-30T16:52:34;98763.41;;;23.24;47.59
27864;BME280;15980;51.092;13.916;2022-07-30T16:57:37;98765.88;;;22.91;48.63
27864;BME280;15980;51.092;13.916;2022-07-30T17:02:41;98768.41;;;22.48;50.32
27864;BME280;15980;51.092;13.916;2022-07-30T17:07:44;98777.34;;;22.36;49.96
27864;BME280;15980;51.092;13.916;2022-07-30T17:12:47;98775.97;;;22.51;50.13
27864;BME280;15980;51.092;13.916;2022-07-30T17:17:52;98773.59;;;22.49;50.13
27864;BME280;15980;51.092;13.916;2022-07-30T17:22:55;98777.88;;;22.27;50.89
27864;BME280;15980;51.092;13.916;2022-07-30T17:27:59;98786.84;;;22.08;51.57
27864;BME280;15980;51.092;13.916;2022-07-30T17:33:04;98785.75;;;21.94;50.90
27864;BME280;15980;51.092;13.916;2022-07-30T17:38:06;98789.59;;;22.15;49.89
27864;BME280;15980;51.092;13.916;2022-07-30T17:43:09;98788.44;;;22.09;49.64
27864;BME280;15980;51.092;13.916;2022-07-30T17:48:15;98788.25;;;21.85;50.94
27864;BME280;15980;51.092;13.916;2022-07-30T17:53:19;98783.94;;;21.77;51.05
27864;BME280;15980;51.092;13.916;2022-07-30T17:58:22;98793.63;;;22.07;49.80
27864;BME280;15980;51.092;13.916;2022-07-30T18:03:26;98789.41;;;21.88;50.12
27864;BME280;15980;51.092;13.916;2022-07-30T18:08:29;98797.59;;;21.68;50.90
27864;BME280;15980;51.092;13.916;2022-07-30T18:13:33;98797.31;;;21.52;51.40
27864;BME280;15980;51.092;13.916;2022-07-30T18:18:38;98801.03;;;21.35;52.31
27864;BME280;15980;51.092;13.916;2022-07-30T18:23:41;98809.13;;;21.08;53.31
27864;BME280;15980;51.092;13.916;2022-07-30T18:28:44;98811.63;;;20.91;53.84
27864;BME280;15980;51.092;13.916;2022-07-30T18:33:49;98810.16;;;20.65;54.72
27864;BME280;15980;51.092;13.916;2022-07-30T18:38:52;98818.16;;;20.56;55.01
27864;BME280;15980;51.092;13.916;2022-07-30T18:43:55;98824.94;;;20.37;55.75
27864;BME280;15980;51.092;13.916;2022-07-30T18:48:59;98834.56;;;20.19;56.48
27864;BME280;15980;51.092;13.916;2022-07-30T18:54:11;98833.38;;;20.05;56.98
27864;BME280;15980;51.092;13.916;2022-07-30T18:59:15;98833.78;;;19.79;58.13
27864;BME280;15980;51.092;13.916;2022-07-30T19:04:19;98840.50;;;19.50;59.70
27864;BME280;15980;51.092;13.916;2022-07-30T19:09:22;98835.31;;;19.20;60.47
27864;BME280;15980;51.092;13.916;2022-07-30T19:14:25;98845.97;;;18.96;61.09
27864;BME280;15980;51.092;13.916;2022-07-30T19:19:29;98858.63;;;18.83;61.55
27864;BME280;15980;51.092;13.916;2022-07-30T19:24:33;98858.63;;;18.76;62.14
27864;BME280;15980;51.092;13.916;2022-07-30T19:29:36;98858.19;;;18.70;62.97
27864;BME280;15980;51.092;13.916;2022-07-30T19:34:40;98847.47;;;18.69;66.50
27864;BME280;15980;51.092;13.916;2022-07-30T19:39:44;98854.06;;;18.46;73.71
27864;BME280;15980;51.092;13.916;2022-07-30T19:44:47;98851.28;;;18.43;76.52
27864;BME280;15980;51.092;13.916;2022-07-30T19:49:51;98854.44;;;18.45;77.17
27864;BME280;15980;51.092;13.916;2022-07-30T19:54:54;98850.03;;;18.33;79.26
27864;BME280;15980;51.092;13.916;2022-07-30T19:59:57;98849.19;;;18.26;80.11
27864;BME280;15980;51.092;13.916;2022-07-30T20:05:03;98842.38;;;18.16;81.14
27864;BME280;15980;51.092;13.916;2022-07-30T20:10:07;98844.69;;;18.07;81.44
27864;BME280;15980;51.092;13.916;2022-07-30T20:15:11;98846.59;;;17.96;81.87
27864;BME280;15980;51.092;13.916;2022-07-30T20:20:16;98838.97;;;17.82;83.91
27864;BME280;15980;51.092;13.916;2022-07-30T20:25:19;98840.88;;;17.74;84.66
27864;BME280;15980;51.092;13.916;2022-07-30T20:30:22;98840.03;;;17.67;86.67
27864;BME280;15980;51.092;13.916;2022-07-30T20:35:28;98841.06;;;17.51;89.93
27864;BME280;15980;51.092;13.916;2022-07-30T20:40:31;98837.88;;;17.49;90.19
27864;BME280;15980;51.092;13.916;2022-07-30T20:45:34;98846.59;;;17.51;89.45
27864;BME280;15980;51.092;13.916;2022-07-30T20:50:43;98855.25;;;17.43;90.09
27864;BME280;15980;51.092;13.916;2022-07-30T20:55:46;98846.91;;;17.39;89.78
27864;BME280;15980;51.092;13.916;2022-07-30T21:00:50;98844.38;;;17.27;91.12
27864;BME280;15980;51.092;13.916;2022-07-30T21:05:55;98847.91;;;17.24;90.51
27864;BME280;15980;51.092;13.916;2022-07-30T21:10:58;98856.56;;;17.15;90.42
27864;BME280;15980;51.092;13.916;2022-07-30T21:16:01;98852.91;;;17.08;90.67
27864;BME280;15980;51.092;13.916;2022-07-30T21:21:05;98848.88;;;17.02;90.50
27864;BME280;15980;51.092;13.916;2022-07-30T21:26:08;98853.19;;;16.95;92.28
27864;BME280;15980;51.092;13.916;2022-07-30T21:31:13;98856.63;;;16.89;92.94
27864;BME280;15980;51.092;13.916;2022-07-30T21:36:17;98864.91;;;16.85;93.62
27864;BME280;15980;51.092;13.916;2022-07-30T21:41:20;98863.69;;;16.83;92.46
27864;BME280;15980;51.092;13.916;2022-07-30T21:46:23;98871.50;;;16.74;93.75
27864;BME280;15980;51.092;13.916;2022-07-30T21:51:28;98878.19;;;16.69;93.76
27864;BME280;15980;51.092;13.916;2022-07-30T21:56:31;98875.91;;;16.78;96.43
27864;BME280;15980;51.092;13.916;2022-07-30T22:01:34;98867.00;;;16.92;94.38
27864;BME280;15980;51.092;13.916;2022-07-30T22:06:39;98869.81;;;16.95;94.25
27864;BME280;15980;51.092;13.916;2022-07-30T22:11:42;98869.00;;;16.95;94.40
27864;BME280;15980;51.092;13.916;2022-07-30T22:16:45;98864.91;;;16.85;94.82
27864;BME280;15980;51.092;13.916;2022-07-30T22:21:50;98858.06;;;16.76;94.33
27864;BME280;15980;51.092;13.916;2022-07-30T22:26:53;98863.78;;;16.60;95.66
27864;BME280;15980;51.092;13.916;2022-07-30T22:31:56;98858.13;;;16.49;96.22
27864;BME280;15980;51.092;13.916;2022-07-30T22:37:01;98847.84;;;16.50;97.83
27864;BME280;15980;51.092;13.916;2022-07-30T22:42:04;98849.72;;;16.46;97.18
27864;BME280;15980;51.092;13.916;2022-07-30T22:47:07;98846.88;;;16.39;97.28
27864;BME280;15980;51.092;13.916;2022-07-30T22:52:11;98852.50;;;16.46;96.88
27864;BME280;15980;51.092;13.916;2022-07-30T22:57:14;98840.50;;;16.34;96.69
27864;BME280;15980;51.092;13.916;2022-07-30T23:02:17;98839.75;;;16.38;96.67
27864;BME280;15980;51.092;13.916;2022-07-30T23:07:22;98831.56;;;16.18;97.18
27864;BME280;15980;51.092;13.916;2022-07-30T23:12:25;98820.75;;;16.06;99.10
27864;BME280;15980;51.092;13.916;2022-07-30T23:17:34;98820.84;;;16.13;98.38
27864;BME280;15980;51.092;13.916;2022-07-30T23:22:39;98818.75;;;16.07;98.96
27864;BME280;15980;51.092;13.916;2022-07-30T23:27:42;98810.88;;;16.09;97.99
27864;BME280;15980;51.092;13.916;2022-07-30T23:32:47;98816.38;;;16.05;98.11
27864;BME280;15980;51.092;13.916;2022-07-30T23:37:51;98806.91;;;16.06;97.02
27864;BME280;15980;51.092;13.916;2022-07-30T23:42:54;98808.41;;;16.03;97.00
27864;BME280;15980;51.092;13.916;2022-07-30T23:47:57;98814.31;;;16.02;96.38
27864;BME280;15980;51.092;13.916;2022-07-30T23:53:03;98813.84;;;15.96;96.82
27864;BME280;15980;51.092;13.916;2022-07-30T23:58:06;98819.28;;;15.89;96.73
